Time,TemperatureF,DewpointF,PressureIn,WindDirection,WindDirectionDegrees,WindSpeedMPH,WindSpeedGustMPH,Humidity,HourlyPrecipIn,Conditions,Clouds,dailyrainin,SoftwareType,DateUTC
2013-05-07 00:02:00,49.0,36.0,-100.00,North,-999,0.0,0.0,60,-99.99,,,0.00,,2013-05-07 06:02:00,
2013-05-07 00:12:00,50.0,37.0,-100.00,South,185,0.0,1.0,60,-99.99,,,0.00,,2013-05-07 06:12:00,
2013-05-07 00:21:00,50.0,37.0,-100.00,South,185,0.0,1.0,60,-99.99,,,0.00,,2013-05-07 06:21:00,
2013-05-07 00:32:00,48.0,36.0,-100.00,North,-999,0.0,0.0,65,-99.99,,,0.00,,2013-05-07 06:32:00,
2013-05-07 00:42:00,48.0,36.0,-100.00,North,-999,0.0,0.0,65,-99.99,,,0.00,,2013-05-07 06:42:00,
2013-05-07 00:52:00,47.0,37.0,-100.00,South,175,0.0,1.0,67,-99.99,,,0.00,,2013-05-07 06:52:00,
2013-05-07 01:02:00,47.0,37.0,-100.00,South,175,0.0,1.0,67,-99.99,,,0.00,,2013-05-07 07:02:00,
2013-05-07 01:11:00,46.0,37.0,-100.00,South,175,0.0,1.0,72,-99.99,,,0.00,,2013-05-07 07:11:00,
2013-05-07 01:22:00,46.0,37.0,-100.00,South,175,0.0,1.0,72,-99.99,,,0.00,,2013-05-07 07:22:00,
2013-05-07 01:31:00,46.0,38.0,-100.00,North,-999,0.0,0.0,74,-99.99,,,0.00,,2013-05-07 07:31:00,
2013-05-07 01:42:00,46.0,38.0,-100.00,North,-999,0.0,0.0,74,-99.99,,,0.00,,2013-05-07 07:42:00,
2013-05-07 01:52:00,44.0,37.0,-100.00,South,185,2.0,3.0,76,-99.99,,,0.00,,2013-05-07 07:52:00,
2013-05-07 02:02:00,44.0,37.0,-100.00,South,185,2.0,3.0,76,-99.99,,,0.00,,2013-05-07 08:02:00,
2013-05-07 02:11:00,44.0,37.0,-100.00,North,-999,0.0,0.0,77,-99.99,,,0.00,,2013-05-07 08:11:00,
2013-05-07 02:21:00,44.0,37.0,-100.00,North,-999,0.0,0.0,77,-99.99,,,0.00,,2013-05-07 08:21:00,
2013-05-07 02:31:00,43.0,36.0,-100.00,South,185,0.0,1.0,77,-99.99,,,0.00,,2013-05-07 08:31:00,
2013-05-07 02:41:00,43.0,36.0,-100.00,South,185,0.0,1.0,77,-99.99,,,0.00,,2013-05-07 08:41:00,
2013-05-07 02:52:00,42.0,37.0,-100.00,South,190,0.0,1.0,80,-99.99,,,0.00,,2013-05-07 08:52:00,
2013-05-07 03:01:00,42.0,37.0,-100.00,South,190,0.0,1.0,80,-99.99,,,0.00,,2013-05-07 09:01:00,
2013-05-07 03:11:00,41.0,36.0,-100.00,North,-999,0.0,0.0,83,-99.99,,,0.00,,2013-05-07 09:11:00,
2013-05-07 03:22:00,41.0,36.0,-100.00,North,-999,0.0,0.0,83,-99.99,,,0.00,,2013-05-07 09:22:00,
2013-05-07 03:33:00,41.0,36.0,-100.00,North,-999,0.0,0.0,83,-99.99,,,0.00,,2013-05-07 09:33:00,
2013-05-07 03:42:00,41.0,36.0,-100.00,North,-999,0.0,0.0,83,-99.99,,,0.00,,2013-05-07 09:42:00,
2013-05-07 03:52:00,40.0,36.0,-100.00,North,-999,0.0,0.0,84,-99.99,,,0.00,,2013-05-07 09:52:00,
2013-05-07 04:02:00,40.0,36.0,-100.00,North,-999,0.0,0.0,84,-99.99,,,0.00,,2013-05-07 10:02:00,
2013-05-07 04:12:00,40.0,36.0,-100.00,SSW,195,0.0,1.0,85,-99.99,,,0.00,,2013-05-07 10:12:00,
2013-05-07 04:22:00,40.0,36.0,-100.00,SSW,195,0.0,1.0,85,-99.99,,,0.00,,2013-05-07 10:22:00,
2013-05-07 04:32:00,39.0,35.0,-100.00,North,-999,0.0,0.0,87,-99.99,,,0.00,,2013-05-07 10:32:00,
2013-05-07 04:42:00,39.0,35.0,-100.00,North,-999,0.0,0.0,87,-99.99,,,0.00,,2013-05-07 10:42:00,
2013-05-07 04:52:00,39.0,35.0,-100.00,North,-999,0.0,0.0,88,-99.99,,,0.00,,2013-05-07 10:52:00,
2013-05-07 05:02:00,39.0,35.0,-100.00,North,-999,0.0,0.0,88,-99.99,,,0.00,,2013-05-07 11:02:00,
2013-05-07 05:11:00,38.0,35.0,-100.00,North,-999,0.0,0.0,90,-99.99,,,0.00,,2013-05-07 11:11:00,
2013-05-07 05:21:00,38.0,35.0,-100.00,North,-999,0.0,0.0,90,-99.99,,,0.00,,2013-05-07 11:21:00,
2013-05-07 05:32:00,37.0,35.0,-100.00,North,-999,0.0,0.0,91,-99.99,,,0.00,,2013-05-07 11:32:00,
2013-05-07 05:42:00,37.0,35.0,-100.00,North,-999,0.0,0.0,91,-99.99,,,0.00,,2013-05-07 11:42:00,
2013-05-07 05:51:00,37.0,35.0,-100.00,North,-999,0.0,0.0,92,-99.99,,,0.00,,2013-05-07 11:51:00,
2013-05-07 06:01:00,37.0,35.0,-100.00,North,-999,0.0,0.0,92,-99.99,,,0.00,,2013-05-07 12:01:00,
2013-05-07 06:11:00,36.0,35.0,-100.00,North,-999,0.0,0.0,93,-99.99,,,0.00,,2013-05-07 12:11:00,
2013-05-07 06:21:00,36.0,35.0,-100.00,North,-999,0.0,0.0,93,-99.99,,,0.00,,2013-05-07 12:21:00,
2013-05-07 06:32:00,37.0,35.0,-100.00,North,-999,0.0,0.0,93,-99.99,,,0.00,,2013-05-07 12:32:00,
2013-05-07 06:42:00,37.0,35.0,-100.00,North,-999,0.0,0.0,93,-99.99,,,0.00,,2013-05-07 12:42:00,
2013-05-07 06:52:00,36.0,35.0,-100.00,SSW,200,2.0,3.0,93,-99.99,,,0.00,,2013-05-07 12:52:00,
2013-05-07 07:02:00,36.0,35.0,-100.00,SSW,200,2.0,3.0,93,-99.99,,,0.00,,2013-05-07 13:02:00,
2013-05-07 07:11:00,37.0,35.0,-100.00,SSW,195,1.0,3.0,94,-99.99,,,0.00,,2013-05-07 13:11:00,
2013-05-07 07:21:00,37.0,35.0,-100.00,SSW,195,1.0,3.0,94,-99.99,,,0.00,,2013-05-07 13:21:00,
2013-05-07 07:32:00,36.0,35.0,-100.00,SSW,195,1.0,3.0,94,-99.99,,,0.00,,2013-05-07 13:32:00,
2013-05-07 07:42:00,36.0,35.0,-100.00,SSW,195,1.0,3.0,94,-99.99,,,0.00,,2013-05-07 13:42:00,
2013-05-07 07:52:00,39.0,37.0,-100.00,South,170,0.0,3.0,92,-99.99,,,0.00,,2013-05-07 13:52:00,
2013-05-07 08:02:00,39.0,37.0,-100.00,South,170,0.0,3.0,92,-99.99,,,0.00,,2013-05-07 14:02:00,
2013-05-07 08:11:00,41.0,37.0,-100.00,South,190,2.0,6.0,84,-99.99,,,0.00,,2013-05-07 14:11:00,
2013-05-07 08:21:00,41.0,37.0,-100.00,South,190,2.0,6.0,84,-99.99,,,0.00,,2013-05-07 14:21:00,
2013-05-07 08:31:00,45.0,37.0,-100.00,North,-999,0.0,0.0,73,-99.99,,,0.00,,2013-05-07 14:31:00,
2013-05-07 08:42:00,45.0,37.0,-100.00,North,-999,0.0,0.0,73,-99.99,,,0.00,,2013-05-07 14:42:00,
2013-05-07 08:51:00,52.0,38.0,-100.00,North,-999,0.0,0.0,59,-99.99,,,0.00,,2013-05-07 14:51:00,
2013-05-07 08:52:00,48.0,38.0,-100.00,North,-999,0.0,0.0,68,-99.99,,,0.00,,2013-05-07 14:52:00,
2013-05-07 09:01:00,48.0,38.0,-100.00,North,-999,0.0,0.0,68,-99.99,,,0.00,,2013-05-07 15:01:00,
2013-05-07 09:12:00,49.0,38.0,-100.00,North,-999,0.0,0.0,66,-99.99,,,0.00,,2013-05-07 15:12:00,
2013-05-07 09:21:00,49.0,38.0,-100.00,North,-999,0.0,0.0,66,-99.99,,,0.00,,2013-05-07 15:21:00,
2013-05-07 09:33:00,52.0,38.0,-100.00,North,-999,0.0,0.0,59,-99.99,,,0.00,,2013-05-07 15:33:00,
2013-05-07 09:42:00,52.0,38.0,-100.00,North,-999,0.0,0.0,59,-99.99,,,0.00,,2013-05-07 15:42:00,
2013-05-07 12:31:00,60.0,35.0,-100.00,NNE,25,14.0,20.0,39,-99.99,,,0.00,,2013-05-07 18:31:00,
2013-05-07 12:41:00,60.0,35.0,-100.00,NNE,25,14.0,20.0,39,-99.99,,,0.00,,2013-05-07 18:41:00,
2013-05-07 12:51:00,62.0,36.0,-100.00,NNE,15,8.0,15.0,38,-99.99,,,0.00,,2013-05-07 18:51:00,
2013-05-07 13:02:00,62.0,36.0,-100.00,NNE,15,8.0,15.0,38,-99.99,,,0.00,,2013-05-07 19:02:00,
2013-05-07 13:11:00,64.0,36.0,-100.00,NE,55,11.0,16.0,36,-99.99,,,0.00,,2013-05-07 19:11:00,
2013-05-07 13:21:00,64.0,36.0,-100.00,NE,55,11.0,16.0,36,-99.99,,,0.00,,2013-05-07 19:21:00,
2013-05-07 13:32:00,64.0,36.0,-100.00,NE,55,11.0,16.0,36,-99.99,,,0.00,,2013-05-07 19:32:00,
2013-05-07 13:41:00,64.0,36.0,-100.00,NE,55,11.0,16.0,36,-99.99,,,0.00,,2013-05-07 19:41:00,
2013-05-07 13:52:00,63.0,36.0,-100.00,WNW,300,8.0,11.0,36,-99.99,,,0.00,,2013-05-07 19:52:00,
2013-05-07 14:02:00,63.0,36.0,-100.00,WNW,300,8.0,11.0,36,-99.99,,,0.00,,2013-05-07 20:02:00,
2013-05-07 14:11:00,63.0,35.0,-100.00,WNW,300,1.0,5.0,35,-99.99,,,0.00,,2013-05-07 20:11:00,
2013-05-07 14:21:00,63.0,35.0,-100.00,WNW,300,1.0,5.0,35,-99.99,,,0.00,,2013-05-07 20:21:00,
2013-05-07 14:32:00,65.0,37.0,-100.00,NE,35,16.0,22.0,35,-99.99,,,0.00,,2013-05-07 20:32:00,
2013-05-07 14:41:00,65.0,37.0,-100.00,NE,35,16.0,22.0,35,-99.99,,,0.00,,2013-05-07 20:41:00,
2013-05-07 14:52:00,65.0,37.0,-100.00,NE,35,16.0,22.0,35,-99.99,,,0.00,,2013-05-07 20:52:00,
2013-05-07 15:01:00,65.0,37.0,-100.00,NE,35,16.0,22.0,35,-99.99,,,0.00,,2013-05-07 21:01:00,
2013-05-07 15:11:00,66.0,37.0,-100.00,North,-999,0.0,0.0,34,-99.99,,,0.00,,2013-05-07 21:11:00,
2013-05-07 15:21:00,66.0,37.0,-100.00,North,-999,0.0,0.0,34,-99.99,,,0.00,,2013-05-07 21:21:00,
2013-05-07 15:32:00,66.0,37.0,-100.00,North,-999,0.0,0.0,34,-99.99,,,0.00,,2013-05-07 21:32:00,
2013-05-07 15:52:00,67.0,37.0,-100.00,NW,315,4.0,8.0,34,-99.99,,,0.00,,2013-05-07 21:52:00,
2013-05-07 16:02:00,67.0,37.0,-100.00,NW,315,4.0,8.0,34,-99.99,,,0.00,,2013-05-07 22:02:00,
2013-05-07 16:13:00,66.0,37.0,-100.00,West,265,12.0,17.0,34,-99.99,,,0.00,,2013-05-07 22:13:00,
2013-05-07 16:22:00,66.0,37.0,-100.00,West,265,12.0,17.0,34,-99.99,,,0.00,,2013-05-07 22:22:00,
2013-05-07 16:32:00,68.0,37.0,-100.00,WNW,285,6.0,12.0,33,-99.99,,,0.00,,2013-05-07 22:32:00,
2013-05-07 16:42:00,68.0,37.0,-100.00,WNW,285,6.0,12.0,33,-99.99,,,0.00,,2013-05-07 22:42:00,
2013-05-07 16:52:00,68.0,38.0,-100.00,North,355,8.0,12.0,33,-99.99,,,0.00,,2013-05-07 22:52:00,
2013-05-07 17:02:00,68.0,38.0,-100.00,North,355,8.0,12.0,33,-99.99,,,0.00,,2013-05-07 23:02:00,
2013-05-07 17:12:00,68.0,37.0,-100.00,NNW,340,5.0,11.0,32,-99.99,,,0.00,,2013-05-07 23:12:00,
2013-05-07 17:21:00,68.0,37.0,-100.00,NNW,340,5.0,11.0,32,-99.99,,,0.00,,2013-05-07 23:21:00,
2013-05-07 17:32:00,68.0,37.0,-100.00,North,350,3.0,7.0,32,-99.99,,,0.00,,2013-05-07 23:32:00,
2013-05-07 17:41:00,68.0,37.0,-100.00,North,350,3.0,7.0,32,-99.99,,,0.00,,2013-05-07 23:41:00,
2013-05-07 17:52:00,69.0,38.0,-100.00,NNE,25,4.0,7.0,32,-99.99,,,0.00,,2013-05-07 23:52:00,
2013-05-07 18:01:00,69.0,38.0,-100.00,NNE,25,4.0,7.0,32,-99.99,,,0.00,,2013-05-08 00:01:00,
2013-05-07 18:11:00,68.0,37.0,-100.00,ENE,65,11.0,15.0,32,-99.99,,,0.00,,2013-05-08 00:11:00,
2013-05-07 18:21:00,68.0,37.0,-100.00,ENE,65,11.0,15.0,32,-99.99,,,0.00,,2013-05-08 00:21:00,
2013-05-07 18:32:00,68.0,37.0,-100.00,NNE,30,12.0,14.0,32,-99.99,,,0.00,,2013-05-08 00:32:00,
2013-05-07 18:42:00,68.0,37.0,-100.00,NNE,30,12.0,14.0,32,-99.99,,,0.00,,2013-05-08 00:42:00,
2013-05-07 18:51:00,66.0,35.0,-100.00,NW,320,8.0,15.0,32,-99.99,,,0.00,,2013-05-08 00:51:00,
2013-05-07 19:02:00,66.0,35.0,-100.00,NW,320,8.0,15.0,32,-99.99,,,0.00,,2013-05-08 01:02:00,
2013-05-07 19:11:00,66.0,36.0,-100.00,NW,315,5.0,13.0,33,-99.99,,,0.00,,2013-05-08 01:11:00,
2013-05-07 19:21:00,66.0,36.0,-100.00,NW,315,5.0,13.0,33,-99.99,,,0.00,,2013-05-08 01:21:00,
2013-05-07 19:31:00,66.0,35.0,-100.00,North,350,6.0,8.0,32,-99.99,,,0.00,,2013-05-08 01:31:00,
2013-05-07 19:42:00,66.0,35.0,-100.00,North,350,6.0,8.0,32,-99.99,,,0.00,,2013-05-08 01:42:00,
2013-05-07 19:52:00,66.0,35.0,-100.00,NW,310,3.0,7.0,32,-99.99,,,0.00,,2013-05-08 01:52:00,
2013-05-07 20:01:00,66.0,35.0,-100.00,NW,310,3.0,7.0,32,-99.99,,,0.00,,2013-05-08 02:01:00,
2013-05-07 20:12:00,66.0,35.0,-100.00,NW,310,3.0,7.0,32,-99.99,,,0.00,,2013-05-08 02:12:00,
2013-05-07 20:31:00,65.0,35.0,-100.00,NNE,20,5.0,9.0,33,-99.99,,,0.00,,2013-05-08 02:31:00,
2013-05-07 20:42:00,65.0,35.0,-100.00,NNE,20,5.0,9.0,33,-99.99,,,0.00,,2013-05-08 02:42:00,
2013-05-07 20:52:00,65.0,35.0,-100.00,NE,40,14.0,16.0,33,-99.99,,,0.00,,2013-05-08 02:52:00,
2013-05-07 21:01:00,65.0,35.0,-100.00,NE,40,14.0,16.0,33,-99.99,,,0.00,,2013-05-08 03:01:00,
2013-05-07 21:11:00,64.0,35.0,-100.00,NNE,15,8.0,11.0,33,-99.99,,,0.00,,2013-05-08 03:11:00,
2013-05-07 21:21:00,64.0,35.0,-100.00,NNE,15,8.0,11.0,33,-99.99,,,0.00,,2013-05-08 03:21:00,
2013-05-07 21:32:00,63.0,34.0,-100.00,NNE,25,11.0,16.0,34,-99.99,,,0.00,,2013-05-08 03:32:00,
2013-05-07 21:43:00,63.0,34.0,-100.00,NNE,25,11.0,16.0,34,-99.99,,,0.00,,2013-05-08 03:43:00,
2013-05-07 21:52:00,62.0,34.0,-100.00,NNE,25,12.0,14.0,34,-99.99,,,0.00,,2013-05-08 03:52:00,
2013-05-07 22:02:00,62.0,34.0,-100.00,NNE,25,12.0,14.0,34,-99.99,,,0.00,,2013-05-08 04:02:00,
2013-05-07 22:12:00,61.0,33.0,-100.00,NE,35,8.0,9.0,35,-99.99,,,0.00,,2013-05-08 04:12:00,
2013-05-07 22:22:00,61.0,33.0,-100.00,NE,35,8.0,9.0,35,-99.99,,,0.00,,2013-05-08 04:22:00,
2013-05-07 22:33:00,60.0,34.0,-100.00,NNE,15,7.0,10.0,37,-99.99,,,0.00,,2013-05-08 04:33:00,
2013-05-07 22:42:00,60.0,34.0,-100.00,NNE,15,7.0,10.0,37,-99.99,,,0.00,,2013-05-08 04:42:00,
2013-05-07 22:52:00,60.0,33.0,-100.00,NNE,15,9.0,12.0,37,-99.99,,,0.00,,2013-05-08 04:52:00,
2013-05-07 23:02:00,60.0,33.0,-100.00,NNE,15,9.0,12.0,37,-99.99,,,0.00,,2013-05-08 05:02:00,
2013-05-07 23:12:00,59.0,33.0,-100.00,North,5,12.0,14.0,37,-99.99,,,0.00,,2013-05-08 05:12:00,
2013-05-07 23:22:00,59.0,33.0,-100.00,North,5,12.0,14.0,37,-99.99,,,0.00,,2013-05-08 05:22:00,
2013-05-07 23:32:00,58.0,32.0,-100.00,North,10,8.0,10.0,38,-99.99,,,0.00,,2013-05-08 05:32:00,
2013-05-07 23:42:00,58.0,32.0,-100.00,North,10,8.0,10.0,38,-99.99,,,0.00,,2013-05-08 05:42:00,
2013-05-07 23:52:00,58.0,32.0,-100.00,North,10,8.0,10.0,38,-99.99,,,0.00,,2013-05-08 05:52:00,